Aérodrome :
LOGIN :

S'inscrire | Disclaimer

   EN    FR    IT 

 










Légende :    VFR   VFR Marginal   IFR   IFR Intensif   IFR Très Intensif
Visi : 
Plafond : 
>= 8 km
>= 3000ft
5 à 8 km
1000 à 3000 ft
1500m à 5 km
500 à 1000 ft
800 à 1500m
200 à 500 ft
< 800m
< 200 ft
Symboles :   Orages  Brouillard  Fortes neiges  Fortes précipitations  Vent > 20 kt
SIGMETs :   Divers  Orages  Givrage  Turbulence  Onde Orograph.  Cendres Volcan.






- Altitude de l'aérodrome : 55 ft
- Code IATA : DSA


EGCN - Robin Hood Doncaster Sheffield

DERNIER METAR :
  • 070350Z AUTO 26003KT 9999 BKN022/// 10/09 Q1003

METARs EXPIRÉS :
  • 070320Z AUTO VRB03KT 9999 FEW018/// SCT024/// BKN039/// 09/08 Q1003 RERA
  • 070250Z AUTO VRB02KT 9999 -RA SCT036/// 09/07 Q1003
  • 070220Z AUTO VRB02KT 9999 FEW040/// 09/07 Q1003
  • 070150Z AUTO 26005KT 9999 NCD 09/07 Q1003
  • 070120Z AUTO 25005KT 9999 NCD 08/06 Q1003

TAF AMD TAF EGCN
Valide du 07 à 04h jusqu'au 08 à 00h UTC


070414Z 0704/0724 27004KT 9999 SCT035
TEMPO 0704/0718 6000 RA BKN010
PROB30
TEMPO 0704/0709 3500 +RA BKN006
BECMG 0706/0709 34010KT



MET'MAP, la Météo Aéronautique d'un coup d'oeil ! - Copyright ORBIFLY Décembre 2007 - Disclaimer

ORBIFLY MET'MAP TEAM :

Programmation & Développement : Alexandra Zaïnal
Sur une idée originale de : Baudouin d'Aumeries
Assistance à la programmation : Marc-Olivier Méhu
Soutien technique & logistique : Manuel Goepfert

Contact : metmap@orbifly.com




SOURCES & CREDITS :

   NOAA